Little Valley, New York
Current Conditions -  °F | °C
As of 8:15 PM on Saturday 25 Oct 2014 (Local Time) from KOLE Reporting Station
Overcast Overcast  
Wind Chill: 50°   Ceiling: 4100
Heat Index: 50°   Visibility: 10mi
Dew Point: 50°   Wind: 6mph
Humidity: 100%   Direction: 270°W
Pressure: 29.68"   Gusts: NA
Location:  42.25°N, 78.81°W
Report Text: KOLE 260015Z AUTO 27005KT 10SM SCT022 BKN041 OVC060 10/10 A2968 RMK AO2
Loading
Personal Weather Stations






























Interactive Weather Map
Tropical Storm Tracking
New forecast layout! Learn more

10-Day Weather Forecast

Advertisements
Track Severe Weather on mobile